Time;durP1;ratioP1;P1;durP2;ratioP2;P2;SDS_P1;SDS_P2;PMS_P1;PMS_P2;Temp;Humidity;BMP_temperature;BMP_pressure;BME280_temperature;BME280_humidity;BME280_pressure;Samples;Min_cycle;Max_cycle;Signal;HPM_P1;HPM_P2
2023/05/31 00:01:36;;;;;;;5.63;3.23;;;;;;;17.62;87.39;94706.91;5070510;28;20645;-45
2023/05/31 00:04:04;;;;;;;3.83;3.03;;;;;;;17.47;87.55;94695.75;5071139;28;20699;-44
2023/05/31 00:06:31;;;;;;;3.07;2.87;;;;;;;17.60;87.49;94718.38;5072539;28;20198;-45
2023/05/31 00:08:58;;;;;;;3.13;2.83;;;;;;;17.59;87.41;94712.41;5070683;28;20221;-45
2023/05/31 00:11:26;;;;;;;3.47;3.00;;;;;;;17.60;87.24;94708.84;5070448;28;20206;-44
2023/05/31 00:13:53;;;;;;;3.60;3.30;;;;;;;17.55;87.75;94713.75;5070509;28;20259;-45
2023/05/31 00:16:19;;;;;;;3.30;3.10;;;;;;;17.55;87.61;94714.56;5070375;28;20668;-45
2023/05/31 00:18:46;;;;;;;3.10;2.90;;;;;;;17.54;87.73;94715.53;5070306;28;20195;-45
2023/05/31 00:21:14;;;;;;;3.47;3.17;;;;;;;17.56;87.70;94715.34;5070491;28;20244;-45
2023/05/31 00:23:41;;;;;;;3.47;3.17;;;;;;;17.56;87.94;94710.19;5071083;28;20195;-46
2023/05/31 00:26:08;;;;;;;3.97;3.20;;;;;;;17.52;87.93;94712.31;5072446;28;20189;-43
2023/05/31 00:28:35;;;;;;;3.87;2.83;;;;;;;17.47;88.48;94712.06;5070039;28;20222;-43
2023/05/31 00:31:02;;;;;;;3.17;2.90;;;;;;;17.46;88.65;94709.66;5070630;28;20201;-44
2023/05/31 00:33:28;;;;;;;3.47;2.90;;;;;;;17.44;89.00;94702.09;5070474;28;20216;-45
2023/05/31 00:35:55;;;;;;;3.33;3.03;;;;;;;17.47;88.97;94706.91;5070300;28;20247;-44
2023/05/31 00:38:23;;;;;;;3.53;3.23;;;;;;;17.50;89.46;94705.75;5070280;28;20186;-44
2023/05/31 00:40:50;;;;;;;3.20;2.90;;;;;;;17.48;89.28;94707.69;5070227;28;20194;-44
2023/05/31 00:43:17;;;;;;;4.67;3.13;;;;;;;17.45;89.50;94713.25;5070129;28;20209;-44
2023/05/31 00:45:44;;;;;;;5.77;3.33;;;;;;;17.42;89.58;94721.34;5070138;28;20198;-44
2023/05/31 00:48:11;;;;;;;4.03;3.13;;;;;;;17.35;89.76;94710.09;5069876;28;20185;-44
2023/05/31 00:50:37;;;;;;;3.07;2.60;;;;;;;17.13;90.04;94688.53;5069876;28;20186;-43
2023/05/31 00:53:05;;;;;;;3.83;3.37;;;;;;;17.29;90.13;94721.97;5069767;28;20630;-44
2023/05/31 00:55:34;;;;;;;3.10;2.80;;;;;;;17.27;90.32;94724.75;5070083;28;20222;-43
2023/05/31 00:58:01;;;;;;;3.17;2.90;;;;;;;17.23;90.73;94709.78;5069932;28;20684;-44
2023/05/31 01:00:28;;;;;;;3.90;3.30;;;;;;;17.24;90.94;94712.16;5069701;28;20681;-44
2023/05/31 01:02:55;;;;;;;6.47;3.53;;;;;;;17.27;90.88;94717.00;5070358;28;20190;-44
2023/05/31 01:05:22;;;;;;;4.70;3.27;;;;;;;17.27;91.20;94719.56;5069866;28;20217;-42
2023/05/31 01:07:51;;;;;;;4.07;3.23;;;;;;;17.27;91.30;94714.41;5071029;28;20201;-44
2023/05/31 01:10:18;;;;;;;4.13;3.77;;;;;;;17.13;91.62;94696.28;5080262;28;20191;-46
2023/05/31 01:12:57;;;;;;;3.70;3.30;;;;;;;17.15;91.75;94700.31;5070055;28;20877;-45
2023/05/31 01:15:26;;;;;;;3.90;3.50;;;;;;;17.27;91.90;94718.75;5069611;28;20225;-44
2023/05/31 01:18:00;;;;;;;5.67;3.73;;;;;;;17.26;91.86;94720.53;5069839;28;20186;-43
2023/05/31 01:20:32;;;;;;;4.60;3.80;;;;;;;17.26;92.04;94723.13;5069525;28;20205;-45
2023/05/31 01:23:12;;;;;;;3.80;3.30;;;;;;;17.12;92.31;94692.13;5070159;28;20715;-43
2023/05/31 01:25:58;;;;;;;4.43;3.77;;;;;;;17.14;92.46;94693.56;5073154;28;20248;-43
2023/05/31 01:28:30;;;;;;;3.97;3.63;;;;;;;17.22;92.62;94703.78;5073055;28;20240;-45
2023/05/31 01:31:03;;;;;;;3.97;3.67;;;;;;;17.30;92.61;94719.19;5069743;28;20232;-44
2023/05/31 01:33:30;;;;;;;3.63;3.33;;;;;;;17.30;92.58;94716.63;5069498;28;20185;-44
2023/05/31 01:35:57;;;;;;;4.13;3.70;;;;;;;17.25;92.83;94707.78;5068852;28;20210;-44
2023/05/31 01:38:24;;;;;;;5.50;4.23;;;;;;;17.27;92.83;94717.00;5069508;28;20195;-42
2023/05/31 01:40:52;;;;;;;3.77;3.47;;;;;;;17.25;92.96;94710.38;5069579;28;20271;-45
2023/05/31 01:43:19;;;;;;;4.87;4.20;;;;;;;17.27;92.79;94714.41;5068955;28;20202;-45
2023/05/31 01:45:48;;;;;;;4.07;3.77;;;;;;;17.26;92.83;94710.19;5069472;28;20560;-45
2023/05/31 01:48:15;;;;;;;7.00;4.07;;;;;;;17.29;92.94;94712.44;5069247;28;20203;-45
2023/05/31 01:50:44;;;;;;;4.17;3.77;;;;;;;17.27;92.89;94709.25;5069058;28;20232;-43
2023/05/31 01:53:11;;;;;;;5.10;4.13;;;;;;;17.30;93.02;94708.06;5069382;28;20207;-44
2023/05/31 01:55:38;;;;;;;4.43;4.03;;;;;;;17.27;92.88;94709.25;5068886;28;20218;-44
2023/05/31 01:58:06;;;;;;;5.80;4.37;;;;;;;17.20;93.04;94703.16;5069217;28;20194;-45
2023/05/31 02:00:34;;;;;;;5.57;4.13;;;;;;;17.27;93.26;94711.81;5068915;28;20709;-45
2023/05/31 02:03:03;;;;;;;3.90;3.60;;;;;;;17.20;93.57;94708.34;5069239;28;20217;-44
2023/05/31 02:05:29;;;;;;;5.60;4.20;;;;;;;17.28;93.49;94718.59;5069613;28;20187;-44
2023/05/31 02:07:56;;;;;;;5.30;3.90;;;;;;;17.28;93.71;94720.38;5074922;28;20198;-45
2023/05/31 02:10:23;;;;;;;5.43;4.50;;;;;;;17.27;93.55;94717.00;5069505;28;20194;-44
2023/05/31 02:12:53;;;;;;;6.63;4.60;;;;;;;17.29;93.75;94722.78;5069331;28;20183;-44
2023/05/31 02:15:20;;;;;;;5.03;4.10;;;;;;;17.24;93.85;94719.94;5069105;28;20213;-43
2023/05/31 02:17:50;;;;;;;10.00;4.80;;;;;;;17.20;93.53;94710.13;5068938;28;20183;-45
2023/05/31 02:20:19;;;;;;;4.20;3.90;;;;;;;17.35;93.41;94728.19;5068685;28;20209;-44
2023/05/31 02:22:47;;;;;;;4.87;3.57;;;;;;;17.33;93.47;94718.06;5068397;28;20190;-44
2023/05/31 02:25:15;;;;;;;4.90;4.40;;;;;;;17.32;93.79;94724.22;5068944;28;20217;-45
2023/05/31 02:27:42;;;;;;;4.50;3.77;;;;;;;17.32;93.69;94726.00;5068826;28;20226;-46
2023/05/31 02:30:10;;;;;;;4.20;3.90;;;;;;;17.29;94.03;94719.38;5068847;28;20273;-44
2023/05/31 02:32:38;;;;;;;6.53;4.87;;;;;;;17.32;93.66;94726.78;5072161;28;20190;-44
2023/05/31 02:35:06;;;;;;;4.90;4.33;;;;;;;17.33;93.62;94727.59;5072314;28;20186;-44
2023/05/31 02:37:34;;;;;;;8.57;4.50;;;;;;;17.32;93.74;94723.41;5072669;28;20237;-44
2023/05/31 02:40:06;;;;;;;8.03;3.87;;;;;;;17.30;93.76;94720.97;5072510;28;20197;-46
2023/05/31 02:42:32;;;;;;;5.83;4.30;;;;;;;17.29;93.73;94722.78;5072524;28;20225;-44
2023/05/31 02:44:59;;;;;;;5.43;4.30;;;;;;;17.23;93.74;94722.69;5072254;28;20581;-44
2023/05/31 02:47:27;;;;;;;4.77;4.03;;;;;;;17.29;93.77;94721.97;5072039;28;20220;-44
2023/05/31 02:49:53;;;;;;;4.67;4.13;;;;;;;17.28;93.63;94717.78;5072093;28;20273;-43
2023/05/31 02:52:20;;;;;;;6.70;4.73;;;;;;;17.25;93.86;94721.53;5071962;28;20252;-45
2023/05/31 02:54:48;;;;;;;6.67;4.93;;;;;;;17.23;94.09;94722.69;5072585;28;20182;-44
2023/05/31 02:57:15;;;;;;;4.57;4.17;;;;;;;17.23;94.14;94723.50;5072030;28;20259;-46
2023/05/31 02:59:44;;;;;;;7.30;4.67;;;;;;;17.18;94.10;94720.63;5072844;28;20244;-45
2023/05/31 03:02:11;;;;;;;5.00;3.77;;;;;;;17.16;94.39;94725.16;5071912;28;20186;-44
2023/05/31 03:04:37;;;;;;;6.13;4.27;;;;;;;17.09;94.65;94718.31;5071920;28;20201;-43
2023/05/31 03:07:05;;;;;;;8.10;4.43;;;;;;;17.14;94.85;94728.91;5071734;28;20198;-45
2023/05/31 03:09:31;;;;;;;7.77;4.53;;;;;;;17.14;95.38;94726.31;5072195;28;20183;-43
2023/05/31 03:12:00;;;;;;;4.90;4.47;;;;;;;17.13;95.49;94724.72;5071987;28;20198;-44
2023/05/31 03:14:27;;;;;;;5.70;4.77;;;;;;;17.13;95.08;94722.13;5071967;28;20694;-45
2023/05/31 03:16:53;;;;;;;4.90;4.50;;;;;;;17.18;95.11;94730.94;5071369;28;20627;-45
2023/05/31 03:19:20;;;;;;;5.03;4.60;;;;;;;17.18;95.28;94730.94;5071473;28;20187;-43
2023/05/31 03:21:47;;;;;;;5.20;4.60;;;;;;;17.18;95.20;94735.31;5071396;28;20277;-43
2023/05/31 03:24:14;;;;;;;5.17;4.67;;;;;;;17.15;95.41;94735.69;5071593;28;20186;-45
2023/05/31 03:26:41;;;;;;;5.10;4.60;;;;;;;17.15;95.42;94728.75;5071093;28;20205;-45
2023/05/31 03:29:09;;;;;;;7.30;4.83;;;;;;;17.17;95.39;94744.06;5071208;28;20237;-44
2023/05/31 03:31:41;;;;;;;9.20;5.13;;;;;;;17.20;95.61;94741.13;5072350;28;20248;-44
2023/05/31 03:34:08;;;;;;;5.50;5.00;;;;;;;17.06;95.40;94722.06;5071036;28;20190;-44
2023/05/31 03:36:36;;;;;;;7.53;5.80;;;;;;;17.22;95.29;94736.56;5071124;28;20631;-44
2023/05/31 03:39:03;;;;;;;9.20;5.40;;;;;;;17.22;95.46;94747.72;5070633;28;20197;-45
2023/05/31 03:41:30;;;;;;;7.07;5.23;;;;;;;17.22;95.47;94747.72;5072752;28;20202;-45
2023/05/31 03:43:57;;;;;;;7.37;5.70;;;;;;;17.23;95.55;94749.34;5078564;28;20239;-45
2023/05/31 03:46:25;;;;;;;5.73;5.23;;;;;;;17.16;95.57;94732.13;5077257;28;20297;-46
2023/05/31 03:48:53;;;;;;;9.87;5.60;;;;;;;17.20;95.82;94741.94;5071255;28;20179;-43
2023/05/31 03:51:20;;;;;;;6.97;5.73;;;;;;;17.17;95.94;94738.91;5071045;28;20178;-45
2023/05/31 03:53:47;;;;;;;6.00;5.37;;;;;;;17.29;95.58;94747.81;5071311;28;20200;-44
2023/05/31 03:56:13;;;;;;;8.73;6.87;;;;;;;17.30;95.43;94754.59;5070866;28;20218;-45
2023/05/31 03:58:40;;;;;;;7.10;6.40;;;;;;;17.34;95.41;94755.03;5070407;28;20182;-45
2023/05/31 04:01:08;;;;;;;11.47;6.43;;;;;;;17.33;95.24;94751.66;5070054;28;20273;-43
2023/05/31 04:03:36;;;;;;;9.47;6.20;;;;;;;17.36;94.87;94753.06;5071140;28;20182;-43
2023/05/31 04:06:03;;;;;;;8.43;6.07;;;;;;;17.40;94.86;94760.31;5071139;28;20285;-44
2023/05/31 04:08:30;;;;;;;10.50;6.77;;;;;;;17.43;94.70;94759.94;5072197;28;20295;-45
2023/05/31 04:10:57;;;;;;;7.67;6.60;;;;;;;17.45;94.81;94759.78;5073541;28;20284;-43
2023/05/31 04:13:24;;;;;;;8.03;6.67;;;;;;;17.46;94.75;94764.75;5070876;28;20203;-44
2023/05/31 04:15:51;;;;;;;12.17;6.60;;;;;;;17.50;94.93;94762.63;5070412;28;20206;-46
2023/05/31 04:18:19;;;;;;;11.23;6.37;;;;;;;17.51;94.79;94759.06;5070566;28;20183;-42
2023/05/31 04:20:47;;;;;;;9.87;6.73;;;;;;;17.60;94.24;94762.34;5070531;28;20661;-44
2023/05/31 04:23:13;;;;;;;8.67;6.37;;;;;;;17.65;93.69;94760.03;5070267;28;20190;-45
2023/05/31 04:25:40;;;;;;;15.50;6.90;;;;;;;17.66;93.41;94770.22;5070064;28;20681;-44
2023/05/31 04:28:08;;;;;;;7.87;6.40;;;;;;;17.71;93.26;94770.47;5070155;28;20268;-45
2023/05/31 04:30:35;;;;;;;11.43;6.90;;;;;;;17.77;93.00;94772.34;5069717;28;20668;-44
2023/05/31 04:33:04;;;;;;;11.90;6.63;;;;;;;17.79;92.60;94774.78;5070110;28;20657;-45
2023/05/31 04:35:32;;;;;;;10.00;6.63;;;;;;;17.78;92.86;94779.13;5070048;28;20186;-44
2023/05/31 04:38:02;;;;;;;10.57;7.13;;;;;;;17.75;92.53;94783.88;5069299;28;20689;-44
2023/05/31 04:40:31;;;;;;;12.10;7.13;;;;;;;17.73;92.75;94783.22;5070114;28;20186;-44
2023/05/31 04:42:58;;;;;;;9.00;6.37;;;;;;;17.73;92.46;94778.03;5069644;28;20254;-44
2023/05/31 04:45:25;;;;;;;10.23;6.60;;;;;;;17.80;91.74;94790.13;5070054;28;20644;-45
2023/05/31 04:47:52;;;;;;;8.37;5.80;;;;;;;17.84;91.19;94782.81;5069738;28;20271;-44
2023/05/31 04:50:19;;;;;;;8.07;6.27;;;;;;;17.83;90.76;94770.03;5070150;28;20242;-44
2023/05/31 04:52:46;;;;;;;8.10;6.33;;;;;;;17.99;90.23;94780.19;5069629;28;20213;-44
2023/05/31 04:55:15;;;;;;;9.37;6.10;;;;;;;18.12;88.89;94780.34;5070087;28;20190;-46
2023/05/31 04:57:41;;;;;;;10.27;5.87;;;;;;;18.08;88.66;94773.91;5071013;28;20245;-44
2023/05/31 05:00:10;;;;;;;9.97;6.13;;;;;;;18.23;88.55;94784.25;5069774;28;20565;-44
2023/05/31 05:02:37;;;;;;;9.10;5.70;;;;;;;18.29;88.12;94780.94;5070036;28;20265;-44
2023/05/31 05:05:06;;;;;;;6.20;5.60;;;;;;;18.31;87.40;94771.22;5070100;28;20187;-44
2023/05/31 05:07:33;;;;;;;10.07;6.83;;;;;;;18.56;87.27;94800.13;5069672;28;20292;-44
2023/05/31 05:10:00;;;;;;;7.00;6.30;;;;;;;18.63;87.08;94800.19;5069816;28;20197;-46
2023/05/31 05:12:28;;;;;;;9.70;6.20;;;;;;;18.72;86.32;94802.50;5069459;28;20182;-45
2023/05/31 05:14:55;;;;;;;10.33;6.87;;;;;;;18.78;85.77;94806.13;5069718;28;20649;-45
2023/05/31 05:17:22;;;;;;;10.53;6.80;;;;;;;18.87;85.05;94807.66;5071197;28;20264;-45
2023/05/31 05:19:48;;;;;;;8.97;6.50;;;;;;;18.74;85.20;94794.56;5070856;28;20189;-46
2023/05/31 05:22:15;;;;;;;11.23;6.20;;;;;;;18.86;85.22;94811.19;5070584;28;20638;-45
2023/05/31 05:24:42;;;;;;;8.30;5.97;;;;;;;19.03;84.81;94827.31;5070478;28;20277;-50
2023/05/31 05:27:09;;;;;;;6.90;6.27;;;;;;;19.10;84.19;94823.00;5069727;28;20186;-45
2023/05/31 05:29:37;;;;;;;10.40;6.63;;;;;;;19.17;84.01;94825.63;5068813;28;20772;-45
2023/05/31 05:32:04;;;;;;;7.10;6.33;;;;;;;19.03;83.81;94799.59;5069455;28;20642;-45
2023/05/31 05:34:31;;;;;;;10.00;6.60;;;;;;;19.29;83.57;94826.72;5069117;28;20218;-47
2023/05/31 05:36:58;;;;;;;7.93;6.83;;;;;;;19.37;83.56;94826.59;5069849;28;20352;-46
2023/05/31 05:39:25;;;;;;;10.50;6.87;;;;;;;19.41;83.30;94829.59;5070057;28;20198;-46
2023/05/31 05:41:52;;;;;;;11.47;6.37;;;;;;;19.47;83.15;94826.25;5070127;28;20190;-47
2023/05/31 05:44:19;;;;;;;7.07;5.97;;;;;;;19.55;82.55;94826.91;5069327;28;20190;-45
2023/05/31 05:46:47;;;;;;;15.60;6.27;;;;;;;19.67;82.02;94834.19;5069656;28;20265;-46
2023/05/31 05:49:14;;;;;;;8.33;6.70;;;;;;;19.74;81.99;94829.88;5069058;28;20183;-45
2023/05/31 05:51:41;;;;;;;8.63;6.27;;;;;;;19.86;81.76;94838.72;5069348;28;20608;-44
2023/05/31 05:54:07;;;;;;;7.77;6.80;;;;;;;20.02;81.98;94833.19;5068962;28;20201;-45
2023/05/31 05:56:34;;;;;;;7.80;6.38;;;;;;;20.13;81.28;94834.47;5068744;28;20221;-45
2023/05/31 05:59:01;;;;;;;8.37;6.30;;;;;;;20.03;80.74;94808.84;5062081;28;20198;-45
2023/05/31 06:01:28;;;;;;;8.57;6.97;;;;;;;20.22;79.93;94835.88;5065075;28;20194;-43
2023/05/31 06:03:56;;;;;;;8.87;7.10;;;;;;;20.29;79.63;94834.13;5066666;28;20293;-45
2023/05/31 06:06:23;;;;;;;14.18;7.28;;;;;;;20.38;79.24;94839.13;5071824;28;20232;-44
2023/05/31 06:08:50;;;;;;;8.07;6.40;;;;;;;20.54;79.24;94839.63;5072673;28;20202;-48
2023/05/31 06:11:18;;;;;;;11.23;6.65;;;;;;;20.63;78.26;94845.44;5072399;28;20194;-44
2023/05/31 06:13:45;;;;;;;9.43;6.50;;;;;;;20.56;78.11;94810.88;5071672;28;20195;-43
2023/05/31 06:16:15;;;;;;;7.50;6.65;;;;;;;20.84;77.87;94835.91;5071321;28;20194;-43
2023/05/31 06:18:42;;;;;;;13.32;6.80;;;;;;;20.95;77.21;94840.53;5072174;28;20199;-44
2023/05/31 06:21:10;;;;;;;7.32;6.63;;;;;;;21.01;76.33;94844.94;5073242;28;20232;-44
2023/05/31 06:23:37;;;;;;;10.48;6.60;;;;;;;21.16;76.44;94835.16;5072423;28;20187;-44
2023/05/31 06:26:03;;;;;;;7.63;6.78;;;;;;;21.26;75.67;94834.75;5072068;28;20202;-46
2023/05/31 06:28:30;;;;;;;9.57;6.78;;;;;;;21.36;75.54;94829.16;5071560;28;20324;-45
2023/05/31 06:30:59;;;;;;;12.75;6.97;;;;;;;21.46;75.13;94834.75;5070915;28;20402;-45
2023/05/31 06:33:25;;;;;;;11.02;7.43;;;;;;;21.62;73.91;94849.16;5071029;28;20294;-45
2023/05/31 06:35:52;;;;;;;11.30;7.07;;;;;;;21.64;73.54;94845.38;5071170;28;20198;-44
2023/05/31 06:38:21;;;;;;;9.00;7.30;;;;;;;21.77;73.84;94842.75;5070543;28;20218;-43
2023/05/31 06:40:48;;;;;;;11.10;7.28;;;;;;;21.88;73.15;94840.50;5069309;28;20289;-44
2023/05/31 06:43:15;;;;;;;8.60;7.35;;;;;;;22.04;71.91;94840.06;5069647;28;20775;-44
2023/05/31 06:45:42;;;;;;;7.38;6.60;;;;;;;22.11;72.07;94843.47;5070988;28;20190;-44
2023/05/31 06:48:09;;;;;;;7.18;6.35;;;;;;;21.77;71.20;94769.84;5071340;28;20200;-44
2023/05/31 06:50:36;;;;;;;10.45;7.18;;;;;;;22.20;70.89;94838.84;5070606;28;20190;-45
2023/05/31 06:53:03;;;;;;;9.25;6.68;;;;;;;22.21;71.02;94836.03;5069929;28;20195;-46
2023/05/31 06:55:31;;;;;;;9.30;7.65;;;;;;;22.21;70.87;94840.44;5070704;28;20194;-46
2023/05/31 06:58:00;;;;;;;9.95;6.60;;;;;;;22.33;70.81;94838.81;5070401;28;20218;-46
2023/05/31 07:00:27;;;;;;;9.95;7.03;;;;;;;22.39;69.82;94835.38;5071417;28;20194;-45
2023/05/31 07:02:53;;;;;;;7.80;6.78;;;;;;;22.45;69.30;94841.53;5070724;28;20231;-44
2023/05/31 07:05:20;;;;;;;10.65;7.38;;;;;;;22.30;69.67;94807.94;5071207;28;20186;-43
2023/05/31 07:07:47;;;;;;;9.57;7.55;;;;;;;22.49;70.11;94846.13;5070625;28;20194;-44
2023/05/31 07:10:15;;;;;;;10.63;7.07;;;;;;;22.57;69.40;94847.72;5070444;28;20704;-43
2023/05/31 07:12:43;;;;;;;9.02;6.75;;;;;;;22.65;68.30;94837.03;5070704;28;20954;-47
2023/05/31 07:15:11;;;;;;;8.73;7.57;;;;;;;22.59;68.64;94837.09;5070341;28;20198;-45
2023/05/31 07:17:38;;;;;;;9.40;7.18;;;;;;;22.67;68.54;94845.47;5069904;28;20218;-45
2023/05/31 07:20:07;;;;;;;14.15;8.20;;;;;;;22.75;68.25;94839.19;5070341;28;20209;-45
2023/05/31 07:22:34;;;;;;;9.68;6.30;;;;;;;22.85;68.21;94846.56;5070573;28;20198;-45
2023/05/31 07:25:00;;;;;;;8.00;6.75;;;;;;;22.79;67.17;94845.59;5070084;28;20562;-45
2023/05/31 07:27:27;;;;;;;9.65;6.30;;;;;;;22.89;67.15;94847.75;5070179;28;20198;-46
2023/05/31 07:29:55;;;;;;;9.15;6.53;;;;;;;23.01;67.19;94838.25;5070133;28;20198;-45
2023/05/31 07:32:22;;;;;;;10.55;6.63;;;;;;;23.14;66.32;94845.97;5070242;28;20664;-44
2023/05/31 07:34:49;;;;;;;8.85;6.45;;;;;;;23.17;66.59;94839.56;5070417;28;20190;-44
2023/05/31 07:37:16;;;;;;;13.90;7.82;;;;;;;23.18;66.17;94825.50;5070167;28;20222;-46
2023/05/31 07:39:44;;;;;;;8.82;6.80;;;;;;;23.38;65.41;94838.41;5069997;28;20186;-46
2023/05/31 07:42:12;;;;;;;11.75;6.35;;;;;;;23.40;65.87;94838.97;5070185;28;20800;-43
2023/05/31 07:44:39;;;;;;;8.50;7.03;;;;;;;23.45;65.88;94836.53;5070373;28;20194;-44
2023/05/31 07:47:08;;;;;;;7.68;6.43;;;;;;;23.49;65.74;94837.72;5069807;28;20225;-44
2023/05/31 07:49:35;;;;;;;10.80;6.75;;;;;;;23.58;65.06;94827.81;5069801;28;20195;-45
2023/05/31 07:52:02;;;;;;;12.13;6.55;;;;;;;23.65;64.80;94836.38;5068867;28;20206;-46
2023/05/31 07:54:28;;;;;;;8.20;6.40;;;;;;;23.76;64.15;94836.47;5069927;28;20297;-44
2023/05/31 07:56:55;;;;;;;13.02;7.38;;;;;;;23.65;64.47;94828.53;5068929;28;20198;-45
2023/05/31 07:59:22;;;;;;;10.45;6.07;;;;;;;23.77;63.76;94832.84;5069377;28;20693;-44
2023/05/31 08:01:49;;;;;;;8.35;5.47;;;;;;;23.86;62.89;94843.81;5069704;28;20633;-43
2023/05/31 08:04:17;;;;;;;8.80;6.25;;;;;;;23.94;62.85;94837.50;5069774;28;20194;-46
2023/05/31 08:06:44;;;;;;;6.50;5.35;;;;;;;23.95;61.46;94836.50;5069879;28;20186;-45
2023/05/31 08:09:11;;;;;;;5.70;4.55;;;;;;;23.98;61.41;94836.84;5069842;28;20186;-44
2023/05/31 08:11:38;;;;;;;7.35;5.13;;;;;;;24.07;61.90;94832.13;5069495;28;20217;-43
2023/05/31 08:14:05;;;;;;;5.75;4.80;;;;;;;24.27;61.35;94837.16;5074918;28;20202;-44
2023/05/31 08:16:33;;;;;;;6.75;4.90;;;;;;;24.43;61.00;94828.72;5071803;28;20190;-44
2023/05/31 08:19:00;;;;;;;6.97;5.45;;;;;;;24.60;60.60;94830.72;5069736;28;20228;-44
2023/05/31 08:21:29;;;;;;;5.38;4.90;;;;;;;24.73;59.89;94825.31;5069348;28;20197;-44
2023/05/31 08:23:55;;;;;;;7.72;5.35;;;;;;;24.92;60.11;94829.50;5069206;28;20222;-44
2023/05/31 08:26:22;;;;;;;10.65;5.43;;;;;;;25.07;59.44;94831.69;5069222;28;20198;-44
2023/05/31 08:28:50;;;;;;;7.97;6.57;;;;;;;25.20;58.62;94826.28;5067951;28;20694;-45
2023/05/31 08:31:17;;;;;;;6.10;5.53;;;;;;;25.21;58.49;94822.63;5069295;28;20308;-45
2023/05/31 08:33:55;;;;;;;6.03;5.10;;;;;;;25.21;58.61;94822.63;5069216;28;20218;-43
2023/05/31 08:36:21;;;;;;;6.07;4.85;;;;;;;25.18;58.58;94825.72;5068912;28;20198;-44
2023/05/31 08:38:50;;;;;;;6.55;4.80;;;;;;;25.10;58.55;94823.41;5066306;28;20224;-44
2023/05/31 08:41:18;;;;;;;7.18;5.03;;;;;;;25.32;58.14;94813.22;5069508;28;20198;-45
2023/05/31 08:43:45;;;;;;;11.05;6.30;;;;;;;25.33;58.42;94816.63;5066291;28;20596;-46
2023/05/31 08:46:12;;;;;;;6.60;5.82;;;;;;;25.52;57.91;94805.03;5069246;28;20194;-45
2023/05/31 08:48:43;;;;;;;9.43;6.45;;;;;;;25.72;57.62;94808.09;5069005;28;20190;-45
2023/05/31 08:51:10;;;;;;;8.27;6.45;;;;;;;25.80;57.93;94808.81;5068713;28;20197;-44
2023/05/31 08:53:39;;;;;;;6.68;5.70;;;;;;;25.97;57.95;94801.81;5069134;28;20754;-44
2023/05/31 08:56:08;;;;;;;7.78;5.70;;;;;;;26.25;56.21;94793.19;5073897;28;20190;-43
2023/05/31 08:58:37;;;;;;;8.20;6.13;;;;;;;26.31;56.39;94791.50;5070078;28;20210;-44
2023/05/31 09:01:04;;;;;;;9.18;7.22;;;;;;;25.82;56.91;94749.09;5068487;28;20194;-45
2023/05/31 09:03:33;;;;;;;7.90;6.30;;;;;;;25.91;57.04;94793.06;5067863;28;20178;-44
2023/05/31 09:05:59;;;;;;;9.32;6.10;;;;;;;25.89;56.74;94768.09;5068730;28;20222;-44
2023/05/31 09:08:26;;;;;;;7.43;5.53;;;;;;;26.35;56.23;94785.53;5068448;28;20198;-44
2023/05/31 09:10:53;;;;;;;6.55;5.55;;;;;;;26.66;55.75;94783.50;5068596;28;20537;-44
2023/05/31 09:13:22;;;;;;;8.43;6.38;;;;;;;26.79;55.38;94782.41;5068932;28;20185;-45
2023/05/31 09:15:50;;;;;;;7.72;4.97;;;;;;;26.99;53.38;94777.53;5068458;28;20202;-43
2023/05/31 09:18:19;;;;;;;5.07;4.57;;;;;;;26.76;52.04;94784.47;5068462;28;20226;-44
2023/05/31 09:20:48;;;;;;;5.43;4.93;;;;;;;26.63;53.20;94776.09;5068291;28;20182;-44
2023/05/31 09:23:17;;;;;;;5.28;4.63;;;;;;;26.41;53.43;94770.69;5068865;28;20202;-44
2023/05/31 09:25:45;;;;;;;5.88;5.00;;;;;;;26.28;52.67;94767.31;5067928;28;20186;-46
2023/05/31 09:28:12;;;;;;;5.75;5.05;;;;;;;26.20;52.89;94770.31;5068256;28;20233;-43
2023/05/31 09:30:41;;;;;;;6.10;4.80;;;;;;;25.97;54.22;94771.16;5068203;28;20610;-45
2023/05/31 09:33:08;;;;;;;9.77;6.10;;;;;;;25.94;54.84;94766.38;5067949;28;20277;-46
2023/05/31 09:35:35;;;;;;;5.50;4.55;;;;;;;26.28;54.74;94759.44;5068477;28;20300;-46
2023/05/31 09:38:05;;;;;;;10.43;5.07;;;;;;;26.70;53.99;94777.56;5067886;28;20232;-45
2023/05/31 09:40:33;;;;;;;6.88;5.13;;;;;;;26.59;53.43;94774.97;5070913;28;20267;-43
2023/05/31 09:43:01;;;;;;;8.35;5.43;;;;;;;26.63;52.98;94771.66;5075316;28;20225;-44
2023/05/31 09:45:29;;;;;;;6.50;5.25;;;;;;;26.37;54.11;94765.13;5075545;28;20374;-46
2023/05/31 09:47:57;;;;;;;9.85;5.35;;;;;;;26.19;54.49;94754.81;5074758;28;20218;-44
2023/05/31 09:50:25;;;;;;;7.63;5.28;;;;;;;25.95;54.63;94743.59;5074844;28;20243;-44
2023/05/31 09:52:57;;;;;;;5.15;4.72;;;;;;;25.84;55.07;94747.06;5074757;28;20186;-45
2023/05/31 09:55:24;;;;;;;5.13;4.72;;;;;;;25.79;54.96;94747.75;5074790;28;20657;-44
2023/05/31 09:57:55;;;;;;;14.40;4.60;;;;;;;25.76;55.31;94750.78;5074623;28;20581;-45
2023/05/31 10:00:22;;;;;;;7.22;5.10;;;;;;;25.71;54.56;94742.81;5073895;28;20216;-44
2023/05/31 10:02:50;;;;;;;4.75;3.88;;;;;;;25.59;51.59;94739.41;5074971;28;20183;-44
2023/05/31 10:05:20;;;;;;;5.95;3.80;;;;;;;25.50;53.22;94752.88;5075135;28;20198;-45
2023/05/31 10:07:48;;;;;;;4.68;3.95;;;;;;;25.44;52.79;94719.75;5075050;28;20610;-51
2023/05/31 10:10:17;;;;;;;5.80;4.18;;;;;;;25.59;54.91;94750.69;5076320;28;20202;-46
2023/05/31 10:12:49;;;;;;;5.28;4.57;;;;;;;25.36;55.37;94756.75;5079043;28;20280;-47
2023/05/31 10:15:18;;;;;;;6.05;4.50;;;;;;;25.37;55.81;94744.44;5074142;28;20277;-45
2023/05/31 10:17:51;;;;;;;7.25;4.72;;;;;;;25.28;55.53;94741.38;5074510;28;20226;-44
2023/05/31 10:20:20;;;;;;;7.50;4.20;;;;;;;25.12;55.81;94753.31;5074676;28;20250;-43
2023/05/31 10:22:53;;;;;;;5.00;4.50;;;;;;;25.05;55.99;94752.63;5074762;28;20587;-45
2023/05/31 10:25:28;;;;;;;5.20;4.70;;;;;;;24.99;56.11;94748.25;5074252;28;20194;-44
2023/05/31 10:28:00;;;;;;;7.22;4.53;;;;;;;25.07;56.53;94749.75;5074313;28;20244;-44
2023/05/31 10:30:31;;;;;;;5.70;5.05;;;;;;;25.16;56.37;94741.38;5074302;28;20186;-43
2023/05/31 10:33:04;;;;;;;7.40;4.45;;;;;;;24.99;56.00;94712.41;5074627;28;20194;-44
2023/05/31 10:35:32;;;;;;;9.77;4.75;;;;;;;25.30;56.27;94746.38;5073963;28;20254;-46
2023/05/31 10:38:01;;;;;;;7.15;5.10;;;;;;;25.28;57.11;94736.16;5074351;28;20225;-44
2023/05/31 10:40:34;;;;;;;5.20;4.70;;;;;;;25.30;57.32;94731.47;5071527;28;20198;-46
2023/05/31 10:43:08;;;;;;;8.30;5.35;;;;;;;25.47;56.65;94734.19;5074540;28;20210;-44
2023/05/31 10:45:40;;;;;;;8.38;5.97;;;;;;;25.37;56.77;94732.16;5073858;28;20190;-44
2023/05/31 10:48:15;;;;;;;4.28;3.80;;;;;;;25.60;55.30;94727.91;5075134;28;20218;-45
2023/05/31 10:50:59;;;;;;;5.75;3.30;;;;;;;25.75;52.74;94731.66;5071292;28;20198;-45
2023/05/31 10:53:30;;;;;;;7.10;3.85;;;;;;;25.80;53.50;94738.06;5067690;28;20198;-44
2023/05/31 10:56:03;;;;;;;5.15;3.80;;;;;;;25.87;53.81;94736.91;5071031;28;20700;-44
2023/05/31 10:58:31;;;;;;;6.55;4.35;;;;;;;25.68;53.99;94722.31;5070981;28;20257;-43
2023/05/31 11:01:03;;;;;;;4.40;2.97;;;;;;;25.62;53.44;94734.53;5070323;28;20327;-43
2023/05/31 11:03:31;;;;;;;5.05;3.55;;;;;;;25.68;54.03;94735.41;5070417;28;20202;-45
2023/05/31 11:06:03;;;;;;;5.85;4.20;;;;;;;25.85;55.05;94736.31;5070189;28;20182;-44
2023/05/31 11:08:30;;;;;;;5.70;4.80;;;;;;;25.83;54.53;94733.16;5071337;28;20202;-46
2023/05/31 11:11:27;;;;;;;3.85;3.50;;;;;;;25.72;54.58;94729.50;5070775;28;20655;-45
2023/05/31 11:14:03;;;;;;;7.65;4.20;;;;;;;25.56;54.13;94726.78;5068957;28;20715;-46
2023/05/31 11:16:32;;;;;;;4.85;4.00;;;;;;;25.67;55.71;94725.97;5070425;28;20280;-44
2023/05/31 11:19:04;;;;;;;5.10;3.75;;;;;;;25.71;54.63;94699.09;5070896;28;20249;-44
2023/05/31 11:21:49;;;;;;;5.03;3.60;;;;;;;25.92;54.32;94720.50;5069599;28;20194;-46
2023/05/31 11:24:31;;;;;;;4.00;3.60;;;;;;;26.04;55.05;94721.25;5068558;28;20505;-46
2023/05/31 11:27:00;;;;;;;5.55;3.58;;;;;;;26.26;53.92;94708.28;5069150;28;20186;-42
2023/05/31 11:29:47;;;;;;;10.85;4.65;;;;;;;26.26;53.59;94711.69;5070113;28;20277;-44
2023/05/31 11:32:14;;;;;;;4.32;3.92;;;;;;;26.01;52.00;94706.78;5073384;28;20311;-44
2023/05/31 11:34:50;;;;;;;6.25;3.85;;;;;;;25.68;52.11;94696.91;5070719;28;20256;-44
2023/05/31 11:37:19;;;;;;;10.48;4.47;;;;;;;25.52;53.25;94693.22;5069475;28;22138;-43